Impacts METAR Board
IDs:

KIAH - Houston/Bush Intl, TX, US

Updated at: 2000 UTC 15 Oct 2018
Potential Impact None Slight Moderate High
Time 15/08Z 15/09Z 15/10Z 15/11Z 15/12Z 15/13Z 15/14Z 15/15Z 15/16Z 15/17Z 15/18Z 15/19Z 15/20Z
Temp76 75 75 74 74 76 71 66 61 59 60 58 59
Dewpt76 75 75 74 74 75 70 64 60 59 58 56 57
Altim29.93 29.94 29.93 29.92 29.94 29.95 29.98 30.02 30.08 30.07 30.05 30.04 30.03
VIS10 10 10 10 10 10 7 10 1 5 10 10 10
CIG50 50 -- -- 23 19 6 6 6 7 7 8 9
CoverBKNBKNSCTFEWBKNBKNOVCOVCOVCOVCOVCOVCOVC
FltCatVFRVFRVFRVFRMVFRMVFRIFRIFRIFRIFRIFRIFRIFR
WX---------------RA+TSRARA BR-----RA
WDir60501501106030340350330340360360360
WSpd4 5 3 5 3 5 12 16 12 13 14 14 11
WGst-- -- -- -- -- -- 20 20 17 -- 20 20 --
Raw hourly METARs
KIAH 150753Z 06004KT 10SM SCT022 BKN050 24/24 A2993 RMK AO2 SLP134 T02440244
KIAH 150853Z 05005KT 10SM FEW030 BKN050 24/24 A2994 RMK AO2 SLP136 T02390239 53005
KIAH 150953Z 15003KT 10SM FEW010 FEW022 SCT050 24/24 A2993 RMK AO2 RAB09E19 SLP134 P0000 T02390239
KIAH 151053Z 11005KT 10SM FEW015 FEW039 23/23 A2992 RMK AO2 SLP131 T02330233 $
KIAH 151153Z 06003KT 10SM BKN023 BKN040 23/23 A2994 RMK AO2 SLP136 60000 T02330233 10250 20233 55000 $
KIAH 151253Z 03005KT 10SM FEW005 BKN019 24/24 A2995 RMK AO2 SLP142 CB AND SHRA DSNT W-N MOV N T02440239
KIAH 151353Z 34012G20KT 7SM BKN006 OVC015CB 22/21 A2998 RMK AO2 SLP151 CB AND VCSH W-N MOV N T02170211
KIAH 151453Z 35016G20KT 10SM -RA OVC006 19/18 A3002 RMK AO2 LTG DSNT SE-SW RAB17E29B52 SLP164 EMBDD CB DSNT SE-SW P0000 60000 T01890178 53028
KIAH 151553Z 33012G17KT 1SM +TSRA OVC006CB 16/16 A3008 RMK AO2 RAE31B44 TSB28 PRESRR SLP185 CONS LTGICCCCG ALQDS TS ALQDS MOV N T01610156 PNO
KIAH 151653Z 34013KT 5SM RA BR BKN007 BKN015 OVC065 15/15 A3007 RMK AO2 TSE41 SLP182 CB DSNT NW-NE-SE MOV N P0066 T01500150
KIAH 151753Z 36014G20KT 10SM OVC007 16/14 A3005 RMK AO2 RAE20 SLP177 P0000 60066 T01560144 10256 20150 50012
KIAH 151853Z 36014G20KT 10SM OVC008 14/13 A3004 RMK AO2 LTG DSNT W SLP171 EMBDD CB DSNT SW-W T01440133
KIAH 151953Z 36011KT 10SM -RA OVC009 15/14 A3003 RMK AO2 RAB32 SLP168 LTG DSNT E EMBDD CB DSNT E MOV NE P0000 T01500139



Page loaded:  20:56 UTC  |   01:56 PM Pacific  |   02:56 PM Mountain  |   03:56 PM Central  |   04:56 PM Eastern

 

ADVISORIES

FORECASTS

FORECASTS

OBSERVATIONS

USER TOOLS

ABOUT US